PWSweather.com
Personal Weather Stations
Station Observations
KCAEXETE14
Park Place, Exeter, CA 93221

Park PlaceExeter, CA 93221

Lat: 36.283487, Lon: -119.152218

Elevation: 380

Station Type: Davis Vantage Vue

http://weather.manyjourneys.com/

Latest ConditionsUpdated 2:55:00 AM PST Sunday, Jan 21, 2018
Currently Today's Max Today's Min Today's Average
Temperature 35.2°F1.8°C 36.1°F2.3°C 34.7°F1.5°C 35.2°F1.8°C
Dew Point 33.9°F1.1°C 34.8°F1.6°C 33.2°F0.7°C 33.9°F1.1°C
Winds Calm Calm Calm SECalm SE - Calm Calm
Wind Gusts -- 1.2 mph1.9 kmh - -
Humidity 95% 95% 94% 95%
Pressure 30.34 in1027.4 mb 30.34 in1027.4 mb 30.30 in1026.1 mb -
Hour Temp Dew Point Humidity Winds Wind Gusts Pressure Precip Precip Rate Daily Precip Total
02:55 AM 35.2°F1.8°C 33.9°F1.1°C 95% Calm Calm -- 30.34 in1027.4 mb - 0.00 in0.0 mm 0.00 in0.0 mm
02:50 AM 35.1°F1.7°C 33.8°F1.0°C 95% Calm Calm -- 30.34 in1027.4 mb - 0.00 in0.0 mm 0.00 in0.0 mm
02:45 AM 35.0°F1.7°C 33.4°F0.8°C 94% Calm Calm -- 30.33 in1027.1 mb - 0.00 in0.0 mm 0.00 in0.0 mm
02:40 AM 35.0°F1.7°C 33.4°F0.8°C 94% Calm Calm -- 30.33 in1027.1 mb - 0.00 in0.0 mm 0.00 in0.0 mm
02:35 AM 35.1°F1.7°C 33.5°F0.8°C 94% Calm Calm -- 30.33 in1027.1 mb - 0.00 in0.0 mm 0.00 in0.0 mm
02:30 AM 35.1°F1.7°C 33.6°F0.9°C 94% Calm Calm -- 30.33 in1027.1 mb - 0.00 in0.0 mm 0.00 in0.0 mm
02:25 AM 35.2°F1.8°C 33.7°F0.9°C 94% Calm Calm -- 30.33 in1027.1 mb - 0.00 in0.0 mm 0.00 in0.0 mm
02:20 AM 35.5°F1.9°C 33.9°F1.1°C 94% Calm Calm -- 30.33 in1027.1 mb - 0.00 in0.0 mm 0.00 in0.0 mm
02:15 AM 35.8°F2.1°C 34.5°F1.4°C 95% Calm Calm -- 30.33 in1027.1 mb - 0.00 in0.0 mm 0.00 in0.0 mm
02:10 AM 36.0°F2.2°C 34.7°F1.5°C 95% Calm Calm -- 30.33 in1027.1 mb - 0.00 in0.0 mm 0.00 in0.0 mm
02:05 AM 36.1°F2.3°C 34.8°F1.6°C 95% Calm Calm -- 30.32 in1026.8 mb - 0.00 in0.0 mm 0.00 in0.0 mm
02:00 AM 36.1°F2.3°C 34.8°F1.6°C 95% Calm Calm -- 30.33 in1027.1 mb - 0.00 in0.0 mm 0.00 in0.0 mm
01:55 AM 35.9°F2.2°C 34.6°F1.4°C 95% Calm Calm -- 30.32 in1026.8 mb - 0.00 in0.0 mm 0.00 in0.0 mm
01:50 AM 36.0°F2.2°C 34.7°F1.5°C 95% Calm Calm -- 30.32 in1026.8 mb - 0.00 in0.0 mm 0.00 in0.0 mm
01:45 AM 35.9°F2.2°C 34.6°F1.4°C 95% Calm Calm -- 30.32 in1026.8 mb - 0.00 in0.0 mm 0.00 in0.0 mm
01:40 AM 36.0°F2.2°C 34.7°F1.5°C 95% Calm Calm -- 30.32 in1026.8 mb - 0.00 in0.0 mm 0.00 in0.0 mm
01:35 AM 35.9°F2.2°C 34.6°F1.4°C 95% Calm Calm -- 30.32 in1026.8 mb - 0.00 in0.0 mm 0.00 in0.0 mm
01:30 AM 35.8°F2.1°C 34.5°F1.4°C 95% Calm Calm -- 30.32 in1026.8 mb - 0.00 in0.0 mm 0.00 in0.0 mm
01:25 AM 35.5°F1.9°C 34.2°F1.2°C 95% Calm Calm 1.2 mph1.9 kmh 30.32 in1026.8 mb - 0.00 in0.0 mm 0.00 in0.0 mm
01:20 AM 35.3°F1.8°C 34.0°F1.1°C 95% Calm Calm -- 30.32 in1026.8 mb - 0.00 in0.0 mm 0.00 in0.0 mm
01:15 AM 35.0°F1.7°C 33.7°F0.9°C 95% Calm Calm -- 30.32 in1026.8 mb - 0.00 in0.0 mm 0.00 in0.0 mm
01:10 AM 34.8°F1.6°C 33.5°F0.8°C 95% Calm Calm 1.2 mph1.9 kmh 30.32 in1026.8 mb - 0.00 in0.0 mm 0.00 in0.0 mm
01:05 AM 34.7°F1.5°C 33.4°F0.8°C 95% Calm Calm -- 30.32 in1026.8 mb - 0.00 in0.0 mm 0.00 in0.0 mm
01:00 AM 34.8°F1.6°C 33.2°F0.7°C 94% Calm Calm -- 30.32 in1026.8 mb - 0.00 in0.0 mm 0.00 in0.0 mm
12:55 AM 34.9°F1.6°C 33.6°F0.9°C 95% Calm Calm -- 30.32 in1026.8 mb - 0.00 in0.0 mm 0.00 in0.0 mm
12:50 AM 34.9°F1.6°C 33.6°F0.9°C 95% Calm Calm -- 30.31 in1026.4 mb - 0.00 in0.0 mm 0.00 in0.0 mm
12:45 AM 34.7°F1.5°C 33.4°F0.8°C 95% Calm Calm -- 30.31 in1026.4 mb - 0.00 in0.0 mm 0.00 in0.0 mm
12:40 AM 34.8°F1.6°C 33.5°F0.8°C 95% Calm Calm -- 30.31 in1026.4 mb - 0.00 in0.0 mm 0.00 in0.0 mm
12:35 AM 34.9°F1.6°C 33.6°F0.9°C 95% Calm Calm -- 30.31 in1026.4 mb - 0.00 in0.0 mm 0.00 in0.0 mm
12:30 AM 35.0°F1.7°C 33.7°F0.9°C 95% Calm Calm -- 30.31 in1026.4 mb - 0.00 in0.0 mm 0.00 in0.0 mm
12:25 AM 34.9°F1.6°C 33.6°F0.9°C 95% Calm Calm -- 30.31 in1026.4 mb - 0.00 in0.0 mm 0.00 in0.0 mm
12:20 AM 34.9°F1.6°C 33.6°F0.9°C 95% Calm Calm -- 30.31 in1026.4 mb - 0.00 in0.0 mm 0.00 in0.0 mm
12:15 AM 34.8°F1.6°C 33.2°F0.7°C 94% Calm Calm -- 30.31 in1026.4 mb - 0.00 in0.0 mm 0.00 in0.0 mm
12:10 AM 34.8°F1.6°C 33.5°F0.8°C 95% Calm Calm -- 30.31 in1026.4 mb - 0.00 in0.0 mm 0.00 in0.0 mm
12:05 AM 34.7°F1.5°C 33.2°F0.7°C 94% Calm Calm -- 30.31 in1026.4 mb - 0.00 in0.0 mm 0.00 in0.0 mm
12:00 AM 34.7°F1.5°C 33.2°F0.7°C 94% Calm Calm -- 30.30 in1026.1 mb - 0.00 in0.0 mm 0.00 in0.0 mm